IBE0148 LEMD-GCXO
Flight info
| Callsign | IBE0148 |
|---|---|
| Flight time | 2h 37m |
| Altitude | 31000 |
| Route | CCS DCT ELVAR/N0460F390 DCT BAROK UN873 SAMAR |
| Aircraft | A339/H-SADE1E2E3GHIJ3J5M1P2RWXY/LB2D1 |
Departure
| Time | 2026-05-05 15:35 |
|---|---|
| Airport | Adolfo Suárez Madrid–Barajas Airport (LEMD) |
Arrival
| Time | 2026-05-05 18:12 |
|---|---|
| Airport | Tenerife Norte-Ciudad de La Laguna Airport (GCXO) |
| Time | Latitude | Longitude | Altitude | Speed | Heading |
|---|---|---|---|---|---|
| 2026-05-05 15:20 | 40.48989 | -3.56870 | 2020 ft | 0 kts | 86° |
| 2026-05-05 15:27 | 40.48989 | -3.56874 | 2020 ft | 2 kts | 86° |
| 2026-05-05 15:27 | 40.48988 | -3.56894 | 2020 ft | 2 kts | 86° |
| 2026-05-05 15:28 | 40.48987 | -3.56914 | 2020 ft | 2 kts | 86° |
| 2026-05-05 15:28 | 40.48986 | -3.56933 | 2020 ft | 2 kts | 86° |
| 2026-05-05 15:28 | 40.48986 | -3.56952 | 2020 ft | 1 kts | 86° |
| 2026-05-05 15:28 | 40.48985 | -3.56966 | 2020 ft | 2 kts | 76° |
| 2026-05-05 15:29 | 40.48978 | -3.56983 | 2020 ft | 2 kts | 48° |
| 2026-05-05 15:29 | 40.48967 | -3.56996 | 2020 ft | 2 kts | 26° |
| 2026-05-05 15:29 | 40.48953 | -3.57002 | 2020 ft | 1 kts | 3° |
| 2026-05-05 15:29 | 40.48947 | -3.57002 | 2020 ft | 1 kts | 359° |
| 2026-05-05 15:30 | 40.48946 | -3.57002 | 2020 ft | 0 kts | 359° |
| 2026-05-05 15:32 | 40.48950 | -3.57002 | 2020 ft | 1 kts | 359° |
| 2026-05-05 15:32 | 40.48968 | -3.57002 | 2020 ft | 3 kts | 359° |
| 2026-05-05 15:32 | 40.49008 | -3.57003 | 2020 ft | 7 kts | 353° |
| 2026-05-05 15:32 | 40.49051 | -3.57047 | 2020 ft | 9 kts | 290° |
| 2026-05-05 15:33 | 40.49054 | -3.57138 | 2020 ft | 10 kts | 268° |
| 2026-05-05 15:33 | 40.49053 | -3.57237 | 2020 ft | 11 kts | 272° |
| 2026-05-05 15:33 | 40.49080 | -3.57323 | 2020 ft | 7 kts | 309° |
| 2026-05-05 15:33 | 40.49118 | -3.57378 | 2020 ft | 8 kts | 312° |
| 2026-05-05 15:34 | 40.49163 | -3.57438 | 2020 ft | 9 kts | 322° |
| 2026-05-05 15:34 | 40.49223 | -3.57461 | 2020 ft | 9 kts | 358° |
| 2026-05-05 15:34 | 40.49295 | -3.57463 | 2020 ft | 13 kts | 358° |
| 2026-05-05 15:34 | 40.49616 | -3.57467 | 2021 ft | 79 kts | 358° |
| 2026-05-05 15:35 | 40.50371 | -3.57468 | 2021 ft | 135 kts | 359° |
| 2026-05-05 15:35 | 40.51466 | -3.57470 | 2099 ft | 173 kts | 356° |
| 2026-05-05 15:35 | 40.52677 | -3.57476 | 2603 ft | 178 kts | 355° |
| 2026-05-05 15:35 | 40.53925 | -3.57500 | 3224 ft | 180 kts | 355° |
| 2026-05-05 15:36 | 40.55142 | -3.57607 | 3895 ft | 174 kts | 338° |
| 2026-05-05 15:36 | 40.56001 | -3.58581 | 4398 ft | 166 kts | 290° |
| 2026-05-05 15:36 | 40.56358 | -3.59979 | 4963 ft | 160 kts | 299° |
| 2026-05-05 15:36 | 40.57137 | -3.61018 | 5374 ft | 167 kts | 323° |
| 2026-05-05 15:37 | 40.58150 | -3.61894 | 5663 ft | 182 kts | 324° |
| 2026-05-05 15:37 | 40.59234 | -3.62872 | 5957 ft | 197 kts | 322° |
| 2026-05-05 15:37 | 40.60381 | -3.63996 | 6261 ft | 214 kts | 321° |
| 2026-05-05 15:37 | 40.61598 | -3.65254 | 6624 ft | 230 kts | 320° |
| 2026-05-05 15:38 | 40.62858 | -3.66593 | 7235 ft | 235 kts | 318° |
| 2026-05-05 15:38 | 40.63847 | -3.68276 | 7900 ft | 237 kts | 289° |
| 2026-05-05 15:38 | 40.64071 | -3.70439 | 8417 ft | 248 kts | 270° |
| 2026-05-05 15:38 | 40.64026 | -3.72782 | 8802 ft | 266 kts | 269° |
| 2026-05-05 15:39 | 40.63975 | -3.75267 | 9313 ft | 278 kts | 269° |
| 2026-05-05 15:39 | 40.63926 | -3.77821 | 10043 ft | 282 kts | 269° |
| 2026-05-05 15:39 | 40.63880 | -3.80411 | 10681 ft | 290 kts | 269° |
| 2026-05-05 15:39 | 40.63834 | -3.83103 | 11080 ft | 306 kts | 270° |
| 2026-05-05 15:40 | 40.63788 | -3.85951 | 11739 ft | 313 kts | 270° |
| 2026-05-05 15:40 | 40.63740 | -3.88821 | 12470 ft | 315 kts | 270° |
| 2026-05-05 15:40 | 40.63693 | -3.91687 | 13232 ft | 318 kts | 270° |
| 2026-05-05 15:40 | 40.63644 | -3.94557 | 14104 ft | 317 kts | 270° |
| 2026-05-05 15:41 | 40.63594 | -3.97452 | 14919 ft | 319 kts | 270° |
| 2026-05-05 15:41 | 40.63544 | -4.00352 | 15683 ft | 321 kts | 270° |
| 2026-05-05 15:41 | 40.63493 | -4.03306 | 16476 ft | 324 kts | 270° |
| 2026-05-05 15:41 | 40.63440 | -4.06260 | 17238 ft | 327 kts | 270° |
| 2026-05-05 15:42 | 40.63387 | -4.09264 | 18004 ft | 329 kts | 270° |
| 2026-05-05 15:42 | 40.63333 | -4.12270 | 18723 ft | 333 kts | 270° |
| 2026-05-05 15:42 | 40.63277 | -4.15311 | 19446 ft | 334 kts | 270° |
| 2026-05-05 15:42 | 40.63220 | -4.18350 | 20213 ft | 335 kts | 270° |
| 2026-05-05 15:43 | 40.63163 | -4.21382 | 20862 ft | 337 kts | 270° |
| 2026-05-05 15:43 | 40.63103 | -4.24478 | 21373 ft | 343 kts | 270° |
| 2026-05-05 15:43 | 40.63041 | -4.27627 | 22017 ft | 345 kts | 270° |
| 2026-05-05 15:43 | 40.62979 | -4.30773 | 22687 ft | 345 kts | 270° |
| 2026-05-05 15:44 | 40.62915 | -4.33930 | 23314 ft | 347 kts | 271° |
| 2026-05-05 15:44 | 40.62850 | -4.37097 | 23903 ft | 348 kts | 271° |
| 2026-05-05 15:44 | 40.62786 | -4.40233 | 24510 ft | 349 kts | 271° |
| 2026-05-05 15:44 | 40.62720 | -4.43426 | 25027 ft | 351 kts | 271° |
| 2026-05-05 15:45 | 40.62653 | -4.46643 | 25547 ft | 353 kts | 271° |
| 2026-05-05 15:45 | 40.62583 | -4.49872 | 26054 ft | 355 kts | 270° |
| 2026-05-05 15:45 | 40.62239 | -4.53100 | 26507 ft | 361 kts | 259° |
| 2026-05-05 15:45 | 40.61388 | -4.56224 | 26949 ft | 369 kts | 250° |
| 2026-05-05 15:46 | 40.60070 | -4.59141 | 27410 ft | 377 kts | 241° |
| 2026-05-05 15:46 | 40.58517 | -4.61935 | 27882 ft | 379 kts | 240° |
| 2026-05-05 15:46 | 40.56944 | -4.64720 | 28312 ft | 381 kts | 240° |
| 2026-05-05 15:46 | 40.55355 | -4.67521 | 28766 ft | 383 kts | 239° |
| 2026-05-05 15:47 | 40.53756 | -4.70333 | 29174 ft | 385 kts | 239° |
| 2026-05-05 15:47 | 40.52693 | -4.72203 | 29424 ft | 388 kts | 239° |
| 2026-05-05 15:47 | 40.50524 | -4.76017 | 29980 ft | 390 kts | 239° |
| 2026-05-05 15:47 | 40.48900 | -4.78861 | 30409 ft | 392 kts | 239° |
| 2026-05-05 15:48 | 40.47267 | -4.81722 | 30773 ft | 394 kts | 239° |
| 2026-05-05 15:48 | 40.45623 | -4.84604 | 31118 ft | 397 kts | 239° |
| 2026-05-05 15:48 | 40.43969 | -4.87497 | 31463 ft | 399 kts | 239° |
| 2026-05-05 15:48 | 40.42297 | -4.90418 | 31793 ft | 402 kts | 239° |
| 2026-05-05 15:49 | 40.40613 | -4.93361 | 32131 ft | 404 kts | 239° |
| 2026-05-05 15:49 | 40.38933 | -4.96291 | 32422 ft | 407 kts | 239° |
| 2026-05-05 15:49 | 40.37228 | -4.99263 | 32721 ft | 410 kts | 238° |
| 2026-05-05 15:49 | 40.35513 | -5.02251 | 33029 ft | 412 kts | 238° |
| 2026-05-05 15:50 | 40.33775 | -5.05270 | 33377 ft | 413 kts | 238° |
| 2026-05-05 15:50 | 40.32057 | -5.08252 | 33800 ft | 413 kts | 238° |
| 2026-05-05 15:50 | 40.30341 | -5.11227 | 34232 ft | 412 kts | 238° |
| 2026-05-05 15:50 | 40.28625 | -5.14203 | 34583 ft | 411 kts | 238° |
| 2026-05-05 15:51 | 40.26887 | -5.17213 | 34887 ft | 411 kts | 238° |
| 2026-05-05 15:51 | 40.25167 | -5.20187 | 35178 ft | 411 kts | 238° |
| 2026-05-05 15:51 | 40.23446 | -5.23163 | 35387 ft | 412 kts | 238° |
| 2026-05-05 15:51 | 40.21735 | -5.26118 | 35614 ft | 414 kts | 238° |
| 2026-05-05 15:52 | 40.19992 | -5.29124 | 35858 ft | 414 kts | 238° |
| 2026-05-05 15:52 | 40.18249 | -5.32130 | 36116 ft | 414 kts | 238° |
| 2026-05-05 15:52 | 40.16526 | -5.35098 | 36427 ft | 413 kts | 238° |
| 2026-05-05 15:52 | 40.14800 | -5.38067 | 36736 ft | 413 kts | 237° |
| 2026-05-05 15:53 | 40.13057 | -5.41062 | 37023 ft | 413 kts | 237° |
| 2026-05-05 15:53 | 40.11309 | -5.44063 | 37313 ft | 414 kts | 237° |
| 2026-05-05 15:53 | 40.09568 | -5.47050 | 37542 ft | 414 kts | 237° |
| 2026-05-05 15:53 | 40.07827 | -5.50033 | 37741 ft | 416 kts | 237° |
| 2026-05-05 15:54 | 40.06074 | -5.53034 | 37917 ft | 417 kts | 237° |
| 2026-05-05 15:54 | 40.04338 | -5.56004 | 38113 ft | 419 kts | 237° |
| 2026-05-05 15:54 | 40.02570 | -5.59026 | 38289 ft | 420 kts | 237° |
| 2026-05-05 15:54 | 40.00794 | -5.62058 | 38479 ft | 422 kts | 237° |
| 2026-05-05 15:55 | 39.99001 | -5.65115 | 38677 ft | 423 kts | 236° |
| 2026-05-05 15:55 | 39.97217 | -5.68154 | 38891 ft | 424 kts | 237° |
| 2026-05-05 15:55 | 39.95416 | -5.71220 | 38961 ft | 425 kts | 236° |
| 2026-05-05 15:56 | 39.91835 | -5.77305 | 38994 ft | 426 kts | 236° |
| 2026-05-05 15:56 | 39.88224 | -5.83429 | 38982 ft | 424 kts | 236° |
| 2026-05-05 15:57 | 39.84631 | -5.89512 | 38981 ft | 424 kts | 236° |
| 2026-05-05 15:57 | 39.81041 | -5.95579 | 38973 ft | 424 kts | 236° |
| 2026-05-05 15:58 | 39.77468 | -6.01605 | 38974 ft | 423 kts | 236° |
| 2026-05-05 15:58 | 39.73878 | -6.07650 | 39017 ft | 423 kts | 236° |
| 2026-05-05 15:59 | 39.70299 | -6.13664 | 38997 ft | 422 kts | 236° |
| 2026-05-05 15:59 | 39.66716 | -6.19672 | 38963 ft | 422 kts | 236° |
| 2026-05-05 16:00 | 39.63123 | -6.25686 | 38973 ft | 422 kts | 236° |
| 2026-05-05 16:00 | 39.59542 | -6.31669 | 38989 ft | 422 kts | 236° |
| 2026-05-05 16:01 | 39.55946 | -6.37663 | 38978 ft | 423 kts | 236° |
| 2026-05-05 16:01 | 39.52325 | -6.43691 | 38992 ft | 423 kts | 237° |
| 2026-05-05 16:02 | 39.49010 | -6.49874 | 38995 ft | 420 kts | 242° |
| 2026-05-05 16:02 | 39.46172 | -6.56426 | 38982 ft | 417 kts | 246° |
| 2026-05-05 16:03 | 39.43850 | -6.63242 | 38994 ft | 415 kts | 252° |
| 2026-05-05 16:03 | 39.41886 | -6.70270 | 38982 ft | 415 kts | 250° |
| 2026-05-05 16:04 | 39.39545 | -6.77079 | 38991 ft | 417 kts | 246° |
| 2026-05-05 16:04 | 39.36971 | -6.83754 | 38988 ft | 416 kts | 246° |
| 2026-05-05 16:05 | 39.34390 | -6.90426 | 39001 ft | 417 kts | 246° |
| 2026-05-05 16:05 | 39.31796 | -6.97110 | 38999 ft | 416 kts | 246° |
| 2026-05-05 16:06 | 39.29208 | -7.03763 | 39014 ft | 416 kts | 246° |
| 2026-05-05 16:06 | 39.26612 | -7.10412 | 39018 ft | 417 kts | 245° |
| 2026-05-05 16:07 | 39.23605 | -7.16824 | 39020 ft | 420 kts | 238° |
| 2026-05-05 16:07 | 39.19919 | -7.22684 | 39015 ft | 424 kts | 231° |
| 2026-05-05 16:08 | 39.15623 | -7.27854 | 39017 ft | 427 kts | 224° |
| 2026-05-05 16:08 | 39.10802 | -7.32399 | 39020 ft | 429 kts | 220° |
| 2026-05-05 16:09 | 39.05921 | -7.36826 | 39027 ft | 430 kts | 220° |
| 2026-05-05 16:09 | 39.01071 | -7.41211 | 39016 ft | 430 kts | 220° |
| 2026-05-05 16:10 | 38.96186 | -7.45619 | 39019 ft | 429 kts | 220° |
| 2026-05-05 16:10 | 38.91291 | -7.50028 | 39027 ft | 428 kts | 220° |
| 2026-05-05 16:11 | 38.86415 | -7.54408 | 39027 ft | 428 kts | 220° |
| 2026-05-05 16:12 | 38.76662 | -7.63150 | 39019 ft | 427 kts | 220° |
| 2026-05-05 16:13 | 38.64490 | -7.74023 | 39023 ft | 428 kts | 219° |
| 2026-05-05 16:13 | 38.59641 | -7.78340 | 39015 ft | 427 kts | 219° |
| 2026-05-05 16:14 | 38.49897 | -7.86993 | 39025 ft | 428 kts | 219° |
| 2026-05-05 16:15 | 38.40144 | -7.95626 | 39022 ft | 427 kts | 220° |
| 2026-05-05 16:16 | 38.30399 | -8.04226 | 39033 ft | 427 kts | 220° |
| 2026-05-05 16:17 | 38.23091 | -8.10654 | 39027 ft | 427 kts | 220° |
| 2026-05-05 16:18 | 38.15783 | -8.17065 | 39019 ft | 426 kts | 219° |
| 2026-05-05 16:19 | 38.08466 | -8.23473 | 39035 ft | 426 kts | 219° |
| 2026-05-05 16:19 | 38.01144 | -8.29864 | 39033 ft | 425 kts | 219° |
| 2026-05-05 16:20 | 37.91402 | -8.38347 | 39036 ft | 427 kts | 219° |
| 2026-05-05 16:22 | 37.79177 | -8.48952 | 39027 ft | 428 kts | 219° |
| 2026-05-05 16:23 | 37.69334 | -8.57459 | 39045 ft | 428 kts | 219° |
| 2026-05-05 16:23 | 37.61969 | -8.63808 | 39051 ft | 428 kts | 219° |
| 2026-05-05 16:24 | 37.57054 | -8.68033 | 39052 ft | 429 kts | 218° |
| 2026-05-05 16:25 | 37.49670 | -8.74371 | 39056 ft | 429 kts | 218° |
| 2026-05-05 16:25 | 37.42297 | -8.80685 | 39059 ft | 430 kts | 218° |
| 2026-05-05 16:26 | 37.32397 | -8.89136 | 39061 ft | 432 kts | 218° |
| 2026-05-05 16:27 | 37.27422 | -8.93375 | 39064 ft | 432 kts | 218° |
| 2026-05-05 16:27 | 37.22473 | -8.97584 | 39064 ft | 432 kts | 218° |
| 2026-05-05 16:28 | 37.17498 | -9.01805 | 39065 ft | 431 kts | 218° |
| 2026-05-05 16:28 | 37.12546 | -9.06000 | 39065 ft | 431 kts | 218° |
| 2026-05-05 16:29 | 37.07556 | -9.10224 | 39066 ft | 432 kts | 218° |
| 2026-05-05 16:29 | 37.02614 | -9.14400 | 39072 ft | 433 kts | 218° |
| 2026-05-05 16:30 | 36.97621 | -9.18611 | 39077 ft | 433 kts | 218° |
| 2026-05-05 16:30 | 36.92632 | -9.22813 | 39080 ft | 433 kts | 218° |
| 2026-05-05 16:31 | 36.87661 | -9.26992 | 39084 ft | 432 kts | 218° |
| 2026-05-05 16:31 | 36.82661 | -9.31189 | 39082 ft | 432 kts | 218° |
| 2026-05-05 16:32 | 36.77668 | -9.35375 | 39085 ft | 433 kts | 218° |
| 2026-05-05 16:32 | 36.72684 | -9.39545 | 39087 ft | 433 kts | 218° |
| 2026-05-05 16:33 | 36.67698 | -9.43708 | 39087 ft | 433 kts | 218° |
| 2026-05-05 16:33 | 36.62677 | -9.47896 | 39092 ft | 433 kts | 218° |
| 2026-05-05 16:34 | 36.57695 | -9.52046 | 39095 ft | 433 kts | 218° |
| 2026-05-05 16:34 | 36.52685 | -9.56211 | 39095 ft | 433 kts | 218° |
| 2026-05-05 16:35 | 36.47671 | -9.60374 | 39098 ft | 433 kts | 218° |
| 2026-05-05 16:35 | 36.42661 | -9.64526 | 39097 ft | 433 kts | 218° |
| 2026-05-05 16:36 | 36.37647 | -9.68677 | 39103 ft | 434 kts | 217° |
| 2026-05-05 16:36 | 36.32630 | -9.72821 | 39103 ft | 435 kts | 217° |
| 2026-05-05 16:37 | 36.27602 | -9.76968 | 39100 ft | 434 kts | 217° |
| 2026-05-05 16:37 | 36.22572 | -9.81110 | 39105 ft | 435 kts | 217° |
| 2026-05-05 16:38 | 36.17535 | -9.85252 | 39105 ft | 435 kts | 217° |
| 2026-05-05 16:38 | 36.12509 | -9.89377 | 39105 ft | 434 kts | 217° |
| 2026-05-05 16:39 | 36.07489 | -9.93492 | 39107 ft | 434 kts | 217° |
| 2026-05-05 16:39 | 36.02443 | -9.97620 | 39109 ft | 435 kts | 217° |
| 2026-05-05 16:40 | 35.97412 | -10.01744 | 39097 ft | 434 kts | 218° |
| 2026-05-05 16:40 | 35.92605 | -10.06134 | 39091 ft | 433 kts | 220° |
| 2026-05-05 16:41 | 35.87792 | -10.10605 | 39105 ft | 433 kts | 220° |
| 2026-05-05 16:41 | 35.82976 | -10.15072 | 39096 ft | 433 kts | 220° |
| 2026-05-05 16:42 | 35.78153 | -10.19539 | 39097 ft | 434 kts | 220° |
| 2026-05-05 16:42 | 35.73321 | -10.24007 | 39095 ft | 435 kts | 220° |
| 2026-05-05 16:43 | 35.68490 | -10.28470 | 39094 ft | 435 kts | 220° |
| 2026-05-05 16:43 | 35.63662 | -10.32922 | 39101 ft | 435 kts | 220° |
| 2026-05-05 16:44 | 35.58836 | -10.37365 | 39095 ft | 434 kts | 220° |
| 2026-05-05 16:44 | 35.53994 | -10.41817 | 39104 ft | 435 kts | 220° |
| 2026-05-05 16:45 | 35.49163 | -10.46252 | 39100 ft | 435 kts | 220° |
| 2026-05-05 16:45 | 35.44333 | -10.50679 | 39100 ft | 435 kts | 220° |
| 2026-05-05 16:46 | 35.39484 | -10.55116 | 39103 ft | 436 kts | 220° |
| 2026-05-05 16:46 | 35.34650 | -10.59535 | 39100 ft | 436 kts | 220° |
| 2026-05-05 16:47 | 35.29792 | -10.63966 | 39101 ft | 436 kts | 220° |
| 2026-05-05 16:47 | 35.24929 | -10.68397 | 39103 ft | 436 kts | 219° |
| 2026-05-05 16:48 | 35.20050 | -10.72833 | 39105 ft | 437 kts | 219° |
| 2026-05-05 16:48 | 35.15176 | -10.77258 | 39101 ft | 437 kts | 219° |
| 2026-05-05 16:49 | 35.10321 | -10.81661 | 39105 ft | 438 kts | 219° |
| 2026-05-05 16:49 | 35.05426 | -10.86094 | 39103 ft | 437 kts | 219° |
| 2026-05-05 16:50 | 35.00549 | -10.90501 | 39109 ft | 437 kts | 219° |
| 2026-05-05 16:50 | 34.95683 | -10.94895 | 39101 ft | 437 kts | 219° |
| 2026-05-05 16:51 | 34.90780 | -10.99312 | 39099 ft | 437 kts | 219° |
| 2026-05-05 16:51 | 34.85890 | -11.03713 | 39105 ft | 438 kts | 219° |
| 2026-05-05 16:52 | 34.81015 | -11.08092 | 39092 ft | 438 kts | 219° |
| 2026-05-05 16:52 | 34.76109 | -11.12492 | 39097 ft | 437 kts | 219° |
| 2026-05-05 16:53 | 34.71218 | -11.16872 | 39085 ft | 437 kts | 219° |
| 2026-05-05 16:53 | 34.66328 | -11.21244 | 39102 ft | 437 kts | 219° |
| 2026-05-05 16:54 | 34.61461 | -11.25595 | 39088 ft | 437 kts | 219° |
| 2026-05-05 16:54 | 34.56583 | -11.29980 | 39094 ft | 437 kts | 219° |
| 2026-05-05 16:55 | 34.51706 | -11.34359 | 39091 ft | 437 kts | 220° |
| 2026-05-05 16:55 | 34.46807 | -11.38745 | 39088 ft | 436 kts | 220° |
| 2026-05-05 16:56 | 34.41956 | -11.43085 | 39089 ft | 436 kts | 220° |
| 2026-05-05 16:56 | 34.37058 | -11.47459 | 39096 ft | 436 kts | 219° |
| 2026-05-05 16:57 | 34.32169 | -11.51814 | 39093 ft | 436 kts | 220° |
| 2026-05-05 16:57 | 34.27290 | -11.56157 | 39097 ft | 436 kts | 220° |
| 2026-05-05 16:58 | 34.22426 | -11.60480 | 39093 ft | 436 kts | 220° |
| 2026-05-05 16:58 | 34.17550 | -11.64807 | 39097 ft | 436 kts | 220° |
| 2026-05-05 16:59 | 34.12661 | -11.69139 | 39096 ft | 437 kts | 219° |
| 2026-05-05 16:59 | 34.07753 | -11.73483 | 39106 ft | 437 kts | 219° |
| 2026-05-05 17:00 | 34.02869 | -11.77799 | 39093 ft | 436 kts | 219° |
| 2026-05-05 17:00 | 33.97961 | -11.82127 | 39102 ft | 437 kts | 219° |
| 2026-05-05 17:01 | 33.93067 | -11.86441 | 39096 ft | 437 kts | 219° |
| 2026-05-05 17:01 | 33.88173 | -11.90743 | 39104 ft | 437 kts | 219° |
| 2026-05-05 17:02 | 33.83258 | -11.95061 | 39105 ft | 436 kts | 220° |
| 2026-05-05 17:02 | 33.78386 | -11.99334 | 39102 ft | 435 kts | 220° |
| 2026-05-05 17:03 | 33.73477 | -12.03636 | 39088 ft | 435 kts | 219° |
| 2026-05-05 17:03 | 33.68615 | -12.07889 | 39103 ft | 434 kts | 219° |
| 2026-05-05 17:04 | 33.63729 | -12.12156 | 39095 ft | 434 kts | 219° |
| 2026-05-05 17:04 | 33.58876 | -12.16385 | 39096 ft | 433 kts | 220° |
| 2026-05-05 17:05 | 33.53991 | -12.20641 | 39084 ft | 433 kts | 220° |
| 2026-05-05 17:05 | 33.49152 | -12.24847 | 39101 ft | 433 kts | 220° |
| 2026-05-05 17:06 | 33.44282 | -12.29078 | 39095 ft | 433 kts | 220° |
| 2026-05-05 17:06 | 33.39393 | -12.33318 | 39081 ft | 432 kts | 220° |
| 2026-05-05 17:07 | 33.34560 | -12.37501 | 39097 ft | 431 kts | 220° |
| 2026-05-05 17:07 | 33.29705 | -12.41700 | 39089 ft | 429 kts | 220° |
| 2026-05-05 17:08 | 33.24888 | -12.45859 | 39085 ft | 429 kts | 220° |
| 2026-05-05 17:08 | 33.20052 | -12.50030 | 39100 ft | 430 kts | 220° |
| 2026-05-05 17:09 | 33.15147 | -12.54255 | 39089 ft | 439 kts | 220° |
| 2026-05-05 17:09 | 33.10144 | -12.58561 | 39089 ft | 449 kts | 220° |
| 2026-05-05 17:10 | 33.05067 | -12.62917 | 39095 ft | 450 kts | 220° |
| 2026-05-05 17:10 | 33.00006 | -12.67252 | 39091 ft | 441 kts | 219° |
| 2026-05-05 17:11 | 32.97555 | -12.69344 | 39098 ft | 430 kts | 219° |
| 2026-05-05 17:11 | 32.95147 | -12.71403 | 39101 ft | 427 kts | 220° |
| 2026-05-05 17:11 | 32.90325 | -12.75531 | 39101 ft | 427 kts | 220° |
| 2026-05-05 17:12 | 32.85520 | -12.79634 | 39102 ft | 427 kts | 220° |
| 2026-05-05 17:12 | 32.80694 | -12.83735 | 39099 ft | 427 kts | 220° |
| 2026-05-05 17:13 | 32.75856 | -12.87835 | 39101 ft | 426 kts | 220° |
| 2026-05-05 17:13 | 32.71063 | -12.91893 | 39106 ft | 425 kts | 220° |
| 2026-05-05 17:14 | 32.66251 | -12.95963 | 39096 ft | 423 kts | 220° |
| 2026-05-05 17:14 | 32.61459 | -13.00009 | 39102 ft | 423 kts | 220° |
| 2026-05-05 17:15 | 32.56696 | -13.04025 | 39102 ft | 421 kts | 220° |
| 2026-05-05 17:15 | 32.51919 | -13.08044 | 39101 ft | 421 kts | 220° |
| 2026-05-05 17:16 | 32.47127 | -13.12071 | 39096 ft | 422 kts | 220° |
| 2026-05-05 17:16 | 32.42362 | -13.16072 | 39102 ft | 422 kts | 220° |
| 2026-05-05 17:17 | 32.37585 | -13.20077 | 39098 ft | 421 kts | 220° |
| 2026-05-05 17:17 | 32.32818 | -13.24070 | 39095 ft | 420 kts | 220° |
| 2026-05-05 17:18 | 32.28052 | -13.28054 | 39095 ft | 419 kts | 220° |
| 2026-05-05 17:18 | 32.23298 | -13.32024 | 39093 ft | 417 kts | 220° |
| 2026-05-05 17:19 | 32.18585 | -13.35956 | 39093 ft | 417 kts | 220° |
| 2026-05-05 17:19 | 32.13829 | -13.39916 | 39085 ft | 418 kts | 220° |
| 2026-05-05 17:20 | 32.09111 | -13.43841 | 39084 ft | 416 kts | 220° |
| 2026-05-05 17:20 | 32.04376 | -13.47774 | 39092 ft | 416 kts | 220° |
| 2026-05-05 17:21 | 31.99638 | -13.51708 | 39081 ft | 415 kts | 220° |
| 2026-05-05 17:22 | 31.92577 | -13.57554 | 39083 ft | 413 kts | 220° |
| 2026-05-05 17:22 | 31.87873 | -13.61450 | 39090 ft | 412 kts | 220° |
| 2026-05-05 17:23 | 31.83192 | -13.65312 | 39104 ft | 412 kts | 220° |
| 2026-05-05 17:23 | 31.78513 | -13.69174 | 39119 ft | 412 kts | 220° |
| 2026-05-05 17:24 | 31.73842 | -13.73020 | 39087 ft | 411 kts | 220° |
| 2026-05-05 17:24 | 31.69143 | -13.76889 | 39066 ft | 410 kts | 220° |
| 2026-05-05 17:25 | 31.64498 | -13.80704 | 39083 ft | 410 kts | 220° |
| 2026-05-05 17:25 | 31.59841 | -13.84528 | 39077 ft | 409 kts | 220° |
| 2026-05-05 17:26 | 31.55187 | -13.88343 | 39078 ft | 407 kts | 220° |
| 2026-05-05 17:26 | 31.50531 | -13.92155 | 39071 ft | 407 kts | 220° |
| 2026-05-05 17:27 | 31.45903 | -13.95940 | 39074 ft | 405 kts | 220° |
| 2026-05-05 17:27 | 31.41298 | -13.99697 | 39066 ft | 404 kts | 220° |
| 2026-05-05 17:28 | 31.36677 | -14.03468 | 39072 ft | 403 kts | 220° |
| 2026-05-05 17:28 | 31.32092 | -14.07205 | 39068 ft | 403 kts | 220° |
| 2026-05-05 17:29 | 31.27519 | -14.10941 | 39069 ft | 402 kts | 221° |
| 2026-05-05 17:29 | 31.22951 | -14.14686 | 39071 ft | 402 kts | 221° |
| 2026-05-05 17:30 | 31.18357 | -14.18447 | 39067 ft | 401 kts | 221° |
| 2026-05-05 17:30 | 31.13825 | -14.22151 | 39068 ft | 399 kts | 221° |
| 2026-05-05 17:31 | 31.09270 | -14.25871 | 39067 ft | 399 kts | 221° |
| 2026-05-05 17:31 | 31.04737 | -14.29564 | 39066 ft | 399 kts | 221° |
| 2026-05-05 17:32 | 31.00186 | -14.33267 | 39070 ft | 397 kts | 221° |
| 2026-05-05 17:32 | 30.95667 | -14.36937 | 39074 ft | 398 kts | 221° |
| 2026-05-05 17:33 | 30.91129 | -14.40620 | 39069 ft | 396 kts | 221° |
| 2026-05-05 17:33 | 30.86598 | -14.44294 | 39067 ft | 395 kts | 221° |
| 2026-05-05 17:34 | 30.82071 | -14.47944 | 39065 ft | 395 kts | 221° |
| 2026-05-05 17:34 | 30.77560 | -14.51577 | 39065 ft | 395 kts | 221° |
| 2026-05-05 17:35 | 30.73051 | -14.55211 | 39066 ft | 394 kts | 221° |
| 2026-05-05 17:35 | 30.68545 | -14.58831 | 39067 ft | 395 kts | 221° |
| 2026-05-05 17:36 | 30.64035 | -14.62448 | 39065 ft | 393 kts | 221° |
| 2026-05-05 17:36 | 30.59560 | -14.66041 | 39066 ft | 393 kts | 220° |
| 2026-05-05 17:37 | 30.55051 | -14.69651 | 39063 ft | 393 kts | 221° |
| 2026-05-05 17:37 | 30.50582 | -14.73226 | 39061 ft | 391 kts | 220° |
| 2026-05-05 17:38 | 30.46116 | -14.76794 | 39056 ft | 389 kts | 221° |
| 2026-05-05 17:38 | 30.41653 | -14.80357 | 39056 ft | 388 kts | 221° |
| 2026-05-05 17:39 | 30.37203 | -14.83905 | 39053 ft | 387 kts | 220° |
| 2026-05-05 17:39 | 30.32775 | -14.87427 | 39055 ft | 386 kts | 221° |
| 2026-05-05 17:40 | 30.28351 | -14.90945 | 39054 ft | 385 kts | 221° |
| 2026-05-05 17:40 | 30.23934 | -14.94452 | 39051 ft | 385 kts | 221° |
| 2026-05-05 17:41 | 30.19526 | -14.97956 | 39054 ft | 383 kts | 221° |
| 2026-05-05 17:41 | 30.15149 | -15.01422 | 38993 ft | 383 kts | 221° |
| 2026-05-05 17:41 | 30.12966 | -15.03154 | 38700 ft | 382 kts | 221° |
| 2026-05-05 17:42 | 30.10762 | -15.04901 | 38409 ft | 379 kts | 221° |
| 2026-05-05 17:42 | 30.08614 | -15.06601 | 38123 ft | 375 kts | 221° |
| 2026-05-05 17:42 | 30.06482 | -15.08286 | 37836 ft | 372 kts | 221° |
| 2026-05-05 17:42 | 30.04357 | -15.09966 | 37541 ft | 371 kts | 221° |
| 2026-05-05 17:43 | 30.02211 | -15.11659 | 37235 ft | 371 kts | 221° |
| 2026-05-05 17:43 | 30.00096 | -15.13334 | 36877 ft | 371 kts | 221° |
| 2026-05-05 17:43 | 29.97966 | -15.15016 | 36381 ft | 372 kts | 221° |
| 2026-05-05 17:43 | 29.95836 | -15.16699 | 35865 ft | 372 kts | 220° |
| 2026-05-05 17:44 | 29.93700 | -15.18387 | 35286 ft | 372 kts | 220° |
| 2026-05-05 17:44 | 29.91575 | -15.20062 | 34743 ft | 372 kts | 220° |
| 2026-05-05 17:44 | 29.89434 | -15.21747 | 34187 ft | 371 kts | 220° |
| 2026-05-05 17:44 | 29.87283 | -15.23443 | 33633 ft | 372 kts | 220° |
| 2026-05-05 17:45 | 29.85148 | -15.25121 | 33082 ft | 372 kts | 220° |
| 2026-05-05 17:45 | 29.83031 | -15.26786 | 32624 ft | 370 kts | 219° |
| 2026-05-05 17:45 | 29.80912 | -15.28450 | 32267 ft | 366 kts | 219° |
| 2026-05-05 17:45 | 29.78815 | -15.30097 | 31891 ft | 362 kts | 219° |
| 2026-05-05 17:46 | 29.76764 | -15.31706 | 31519 ft | 359 kts | 219° |
| 2026-05-05 17:46 | 29.74702 | -15.33324 | 31154 ft | 356 kts | 219° |
| 2026-05-05 17:46 | 29.72666 | -15.34919 | 30789 ft | 353 kts | 219° |
| 2026-05-05 17:46 | 29.70643 | -15.36506 | 30422 ft | 350 kts | 219° |
| 2026-05-05 17:47 | 29.68647 | -15.38069 | 30061 ft | 347 kts | 219° |
| 2026-05-05 17:47 | 29.66670 | -15.39619 | 29684 ft | 345 kts | 219° |
| 2026-05-05 17:47 | 29.64695 | -15.41165 | 29321 ft | 343 kts | 219° |
| 2026-05-05 17:47 | 29.62701 | -15.42723 | 28955 ft | 342 kts | 219° |
| 2026-05-05 17:48 | 29.60756 | -15.44245 | 28599 ft | 340 kts | 219° |
| 2026-05-05 17:48 | 29.58794 | -15.45779 | 28248 ft | 339 kts | 219° |
| 2026-05-05 17:48 | 29.56848 | -15.47297 | 27895 ft | 339 kts | 219° |
| 2026-05-05 17:48 | 29.54897 | -15.48822 | 27543 ft | 338 kts | 219° |
| 2026-05-05 17:49 | 29.52972 | -15.50325 | 27181 ft | 337 kts | 219° |
| 2026-05-05 17:49 | 29.51028 | -15.51843 | 26788 ft | 337 kts | 218° |
| 2026-05-05 17:49 | 29.49092 | -15.53352 | 26400 ft | 336 kts | 219° |
| 2026-05-05 17:49 | 29.47154 | -15.54861 | 25985 ft | 336 kts | 218° |
| 2026-05-05 17:50 | 29.45229 | -15.56360 | 25587 ft | 335 kts | 218° |
| 2026-05-05 17:50 | 29.43318 | -15.57847 | 25191 ft | 334 kts | 219° |
| 2026-05-05 17:50 | 29.41400 | -15.59341 | 24782 ft | 333 kts | 218° |
| 2026-05-05 17:50 | 29.39474 | -15.60838 | 24331 ft | 334 kts | 218° |
| 2026-05-05 17:51 | 29.37548 | -15.62338 | 23851 ft | 335 kts | 218° |
| 2026-05-05 17:51 | 29.35636 | -15.63823 | 23410 ft | 335 kts | 219° |
| 2026-05-05 17:51 | 29.33704 | -15.65322 | 23007 ft | 335 kts | 218° |
| 2026-05-05 17:51 | 29.31768 | -15.66827 | 22611 ft | 334 kts | 218° |
| 2026-05-05 17:52 | 29.29862 | -15.68311 | 22284 ft | 332 kts | 218° |
| 2026-05-05 17:52 | 29.27947 | -15.69798 | 21989 ft | 329 kts | 218° |
| 2026-05-05 17:52 | 29.26074 | -15.71248 | 21707 ft | 326 kts | 218° |
| 2026-05-05 17:52 | 29.24184 | -15.72712 | 21391 ft | 325 kts | 218° |
| 2026-05-05 17:53 | 29.22324 | -15.74153 | 21049 ft | 324 kts | 218° |
| 2026-05-05 17:53 | 29.20467 | -15.75591 | 20696 ft | 323 kts | 218° |
| 2026-05-05 17:53 | 29.18618 | -15.77023 | 20358 ft | 321 kts | 218° |
| 2026-05-05 17:53 | 29.16774 | -15.78449 | 19999 ft | 320 kts | 218° |
| 2026-05-05 17:54 | 29.14913 | -15.79888 | 19632 ft | 320 kts | 218° |
| 2026-05-05 17:54 | 29.13076 | -15.81306 | 19268 ft | 319 kts | 219° |
| 2026-05-05 17:54 | 29.11248 | -15.82718 | 18920 ft | 318 kts | 219° |
| 2026-05-05 17:54 | 29.09428 | -15.84126 | 18579 ft | 316 kts | 219° |
| 2026-05-05 17:55 | 29.07590 | -15.85544 | 18214 ft | 315 kts | 219° |
| 2026-05-05 17:55 | 29.05790 | -15.86933 | 17858 ft | 314 kts | 219° |
| 2026-05-05 17:55 | 29.03987 | -15.88324 | 17500 ft | 314 kts | 218° |
| 2026-05-05 17:55 | 29.02168 | -15.89729 | 17134 ft | 313 kts | 219° |
| 2026-05-05 17:56 | 29.00366 | -15.91119 | 16760 ft | 313 kts | 218° |
| 2026-05-05 17:56 | 28.98562 | -15.92510 | 16386 ft | 312 kts | 218° |
| 2026-05-05 17:56 | 28.96761 | -15.93898 | 16005 ft | 313 kts | 218° |
| 2026-05-05 17:56 | 28.94978 | -15.95270 | 15638 ft | 312 kts | 218° |
| 2026-05-05 17:57 | 28.93162 | -15.96668 | 15260 ft | 312 kts | 217° |
| 2026-05-05 17:57 | 28.91372 | -15.98045 | 14889 ft | 312 kts | 217° |
| 2026-05-05 17:57 | 28.89566 | -15.99433 | 14511 ft | 312 kts | 217° |
| 2026-05-05 17:57 | 28.87779 | -16.00805 | 14137 ft | 312 kts | 217° |
| 2026-05-05 17:58 | 28.85975 | -16.02190 | 13769 ft | 311 kts | 217° |
| 2026-05-05 17:58 | 28.84169 | -16.03574 | 13394 ft | 311 kts | 217° |
| 2026-05-05 17:58 | 28.82396 | -16.04934 | 13034 ft | 311 kts | 217° |
| 2026-05-05 17:58 | 28.80580 | -16.06327 | 12662 ft | 311 kts | 217° |
| 2026-05-05 17:59 | 28.78809 | -16.07685 | 12300 ft | 311 kts | 217° |
| 2026-05-05 17:59 | 28.77020 | -16.09054 | 11937 ft | 310 kts | 217° |
| 2026-05-05 17:59 | 28.75214 | -16.10439 | 11572 ft | 309 kts | 216° |
| 2026-05-05 17:59 | 28.73441 | -16.11796 | 11216 ft | 309 kts | 216° |
| 2026-05-05 18:00 | 28.71641 | -16.13173 | 10856 ft | 308 kts | 216° |
| 2026-05-05 18:00 | 28.69877 | -16.14523 | 10497 ft | 308 kts | 216° |
| 2026-05-05 18:00 | 28.68096 | -16.15885 | 10133 ft | 307 kts | 216° |
| 2026-05-05 18:00 | 28.66354 | -16.17214 | 10000 ft | 298 kts | 216° |
| 2026-05-05 18:01 | 28.64646 | -16.18516 | 9941 ft | 286 kts | 216° |
| 2026-05-05 18:01 | 28.63024 | -16.19753 | 9925 ft | 274 kts | 216° |
| 2026-05-05 18:01 | 28.61460 | -16.20946 | 9758 ft | 270 kts | 216° |
| 2026-05-05 18:01 | 28.59904 | -16.22135 | 9455 ft | 270 kts | 216° |
| 2026-05-05 18:02 | 28.58335 | -16.23334 | 9138 ft | 270 kts | 216° |
| 2026-05-05 18:02 | 28.56795 | -16.24509 | 8852 ft | 269 kts | 216° |
| 2026-05-05 18:02 | 28.55317 | -16.25805 | 8548 ft | 267 kts | 231° |
| 2026-05-05 18:02 | 28.54477 | -16.27655 | 8255 ft | 265 kts | 258° |
| 2026-05-05 18:03 | 28.54467 | -16.29759 | 7961 ft | 266 kts | 283° |
| 2026-05-05 18:03 | 28.54995 | -16.31751 | 7699 ft | 266 kts | 287° |
| 2026-05-05 18:03 | 28.55554 | -16.33768 | 7427 ft | 265 kts | 287° |
| 2026-05-05 18:03 | 28.56101 | -16.35760 | 7163 ft | 265 kts | 287° |
| 2026-05-05 18:04 | 28.56639 | -16.37739 | 6891 ft | 265 kts | 287° |
| 2026-05-05 18:04 | 28.57182 | -16.39751 | 6639 ft | 265 kts | 287° |
| 2026-05-05 18:04 | 28.57723 | -16.41761 | 6350 ft | 265 kts | 287° |
| 2026-05-05 18:04 | 28.58257 | -16.43751 | 6078 ft | 265 kts | 287° |
| 2026-05-05 18:05 | 28.58800 | -16.45776 | 5814 ft | 265 kts | 287° |
| 2026-05-05 18:05 | 28.59331 | -16.47758 | 5510 ft | 259 kts | 287° |
| 2026-05-05 18:05 | 28.59846 | -16.49681 | 5321 ft | 245 kts | 288° |
| 2026-05-05 18:05 | 28.60317 | -16.51446 | 5333 ft | 227 kts | 288° |
| 2026-05-05 18:06 | 28.60768 | -16.53135 | 5327 ft | 222 kts | 288° |
| 2026-05-05 18:06 | 28.60921 | -16.53704 | 5317 ft | 222 kts | 288° |
| 2026-05-05 18:06 | 28.61632 | -16.56519 | 5266 ft | 223 kts | 277° |
| 2026-05-05 18:06 | 28.61316 | -16.58222 | 5188 ft | 227 kts | 237° |
| 2026-05-05 18:07 | 28.60076 | -16.59333 | 4957 ft | 233 kts | 202° |
| 2026-05-05 18:07 | 28.58469 | -16.59701 | 4707 ft | 237 kts | 175° |
| 2026-05-05 18:07 | 28.56947 | -16.59095 | 4507 ft | 236 kts | 142° |
| 2026-05-05 18:07 | 28.55918 | -16.57661 | 4364 ft | 229 kts | 114° |
| 2026-05-05 18:08 | 28.55367 | -16.56028 | 4340 ft | 217 kts | 106° |
| 2026-05-05 18:08 | 28.54926 | -16.54442 | 4308 ft | 200 kts | 106° |
| 2026-05-05 18:08 | 28.54500 | -16.52993 | 4336 ft | 184 kts | 107° |
| 2026-05-05 18:08 | 28.54083 | -16.51667 | 4346 ft | 179 kts | 108° |
| 2026-05-05 18:09 | 28.53648 | -16.50334 | 4384 ft | 180 kts | 108° |
| 2026-05-05 18:09 | 28.53207 | -16.49005 | 4380 ft | 181 kts | 109° |
| 2026-05-05 18:09 | 28.52762 | -16.47678 | 4193 ft | 175 kts | 108° |
| 2026-05-05 18:09 | 28.52341 | -16.46417 | 3952 ft | 169 kts | 109° |
| 2026-05-05 18:10 | 28.51928 | -16.45180 | 3725 ft | 163 kts | 108° |
| 2026-05-05 18:10 | 28.51535 | -16.44001 | 3521 ft | 156 kts | 108° |
| 2026-05-05 18:10 | 28.51161 | -16.42878 | 3328 ft | 152 kts | 108° |
| 2026-05-05 18:10 | 28.50784 | -16.41741 | 3145 ft | 152 kts | 108° |
| 2026-05-05 18:11 | 28.50413 | -16.40621 | 2961 ft | 153 kts | 108° |
| 2026-05-05 18:11 | 28.50022 | -16.39494 | 2763 ft | 152 kts | 107° |
| 2026-05-05 18:11 | 28.49663 | -16.38358 | 2534 ft | 152 kts | 109° |
| 2026-05-05 18:11 | 28.49281 | -16.37224 | 2343 ft | 152 kts | 109° |
| 2026-05-05 18:12 | 28.48914 | -16.36107 | 2147 ft | 152 kts | 108° |
| 2026-05-05 18:12 | 28.48561 | -16.35017 | 2064 ft | 137 kts | 110° |
| 2026-05-05 18:12 | 28.48289 | -16.34192 | 2029 ft | 84 kts | 112° |
| 2026-05-05 18:12 | 28.48159 | -16.33796 | 2021 ft | 28 kts | 99° |
| 2026-05-05 18:13 | 28.48143 | -16.33630 | 2018 ft | 12 kts | 96° |
| 2026-05-05 18:13 | 28.48144 | -16.33565 | 2018 ft | 3 kts | 44° |
| 2026-05-05 18:13 | 28.48180 | -16.33568 | 2017 ft | 7 kts | 324° |
| 2026-05-05 18:13 | 28.48206 | -16.33622 | 2018 ft | 8 kts | 292° |
| 2026-05-05 18:14 | 28.48239 | -16.33711 | 2018 ft | 15 kts | 294° |
| 2026-05-05 18:14 | 28.48280 | -16.33850 | 2018 ft | 21 kts | 290° |
| 2026-05-05 18:14 | 28.48335 | -16.34010 | 2022 ft | 20 kts | 290° |
| 2026-05-05 18:14 | 28.48382 | -16.34151 | 2028 ft | 16 kts | 290° |
| 2026-05-05 18:15 | 28.48419 | -16.34262 | 2033 ft | 13 kts | 288° |
| 2026-05-05 18:15 | 28.48448 | -16.34353 | 2036 ft | 11 kts | 291° |
| 2026-05-05 18:15 | 28.48476 | -16.34436 | 2037 ft | 10 kts | 290° |
| 2026-05-05 18:15 | 28.48497 | -16.34498 | 2039 ft | 4 kts | 299° |
| 2026-05-05 18:16 | 28.48521 | -16.34515 | 2040 ft | 4 kts | 348° |
| 2026-05-05 18:16 | 28.48558 | -16.34510 | 2042 ft | 6 kts | 17° |
| 2026-05-05 18:16 | 28.48607 | -16.34491 | 2044 ft | 6 kts | 21° |
| 2026-05-05 18:16 | 28.48616 | -16.34487 | 2044 ft | 0 kts | 22° |